Time;durP1;ratioP1;P1;durP2;ratioP2;P2;SDS_P1;SDS_P2;PMS_P1;PMS_P2;Temp;Humidity;BMP_temperature;BMP_pressure;BME280_temperature;BME280_humidity;BME280_pressure;Samples;Min_cycle;Max_cycle;Signal;HPM_P1;HPM_P2
2022/06/24 00:01:06;;;;;;;5.10;4.32;;;;;;;15.42;100.00;99663.97;5092109;28;20103;-54
2022/06/24 00:03:51;;;;;;;7.95;5.40;;;;;;;15.36;100.00;99666.88;5097044;28;20097;-53
2022/06/24 00:06:46;;;;;;;6.50;5.03;;;;;;;15.33;100.00;99667.03;5098723;28;20047;-51
2022/06/24 00:09:31;;;;;;;7.72;4.57;;;;;;;15.29;100.00;99662.81;5102735;28;20047;-52
2022/06/24 00:12:20;;;;;;;7.05;5.30;;;;;;;15.18;100.00;99662.47;5098502;28;20055;-53
2022/06/24 00:15:05;;;;;;;7.53;5.05;;;;;;;15.16;100.00;99667.81;5093343;28;20052;-53
2022/06/24 00:17:50;;;;;;;8.57;5.05;;;;;;;15.10;100.00;99667.25;5095964;28;20051;-52
2022/06/24 00:20:44;;;;;;;7.80;4.75;;;;;;;14.98;100.00;99668.66;5094476;28;20097;-52
2022/06/24 00:23:29;;;;;;;9.32;5.65;;;;;;;15.09;100.00;99670.81;5097503;28;20051;-53
2022/06/24 00:26:13;;;;;;;8.95;5.22;;;;;;;15.15;100.00;99681.09;5100616;28;20146;-51
2022/06/24 00:29:00;;;;;;;9.73;5.93;;;;;;;15.18;100.00;99676.53;5094213;28;20043;-53
2022/06/24 00:32:05;;;;;;;9.32;5.93;;;;;;;15.22;100.00;99668.47;5101253;28;20489;-53
2022/06/24 00:35:02;;;;;;;9.23;6.40;;;;;;;15.20;100.00;99664.09;5095692;28;20091;-53
2022/06/24 00:37:46;;;;;;;10.25;5.78;;;;;;;15.08;100.00;99667.31;5102543;28;20090;-52
2022/06/24 00:40:34;;;;;;;7.38;5.75;;;;;;;15.09;100.00;99670.81;5093229;28;20035;-52
2022/06/24 00:43:30;;;;;;;6.53;5.10;;;;;;;15.05;100.00;99667.47;5100365;28;20040;-51
2022/06/24 00:46:24;;;;;;;7.53;5.40;;;;;;;14.96;100.00;99666.09;5100477;28;20040;-53
2022/06/24 00:49:11;;;;;;;8.40;5.53;;;;;;;14.98;100.00;99662.53;5097884;28;20085;-51
2022/06/24 00:51:56;;;;;;;6.93;5.85;;;;;;;14.87;100.00;99655.09;5099295;28;20040;-53
2022/06/24 00:54:43;;;;;;;8.50;5.45;;;;;;;14.90;100.00;99654.97;5101639;28;20046;-54
2022/06/24 00:57:35;;;;;;;7.90;5.10;;;;;;;14.73;100.00;99642.56;5099851;28;20352;-53
2022/06/24 01:00:23;;;;;;;7.60;5.25;;;;;;;14.82;100.00;99646.53;5102264;28;20508;-54
2022/06/24 01:03:07;;;;;;;7.57;5.05;;;;;;;14.79;100.00;99644.06;5100157;28;20067;-55
2022/06/24 01:05:51;;;;;;;9.00;5.10;;;;;;;14.82;100.00;99634.22;5101603;28;20052;-50
2022/06/24 01:08:36;;;;;;;7.95;5.20;;;;;;;14.80;100.00;99643.97;5097752;28;20040;-54
2022/06/24 01:11:32;;;;;;;6.95;5.70;;;;;;;14.79;100.00;99646.69;5096339;28;20046;-53
2022/06/24 01:14:17;;;;;;;5.53;3.95;;;;;;;14.75;100.00;99645.09;5106076;28;20148;-53
2022/06/24 01:17:02;;;;;;;7.85;5.38;;;;;;;14.73;100.00;99639.91;5099639;28;20040;-53
2022/06/24 01:19:46;;;;;;;6.85;4.55;;;;;;;14.63;100.00;99641.25;5094268;28;20040;-53
2022/06/24 01:22:32;;;;;;;6.63;4.75;;;;;;;14.64;100.00;99637.69;5098129;28;20036;-55
2022/06/24 01:25:16;;;;;;;5.88;4.70;;;;;;;14.58;100.00;99638.81;5097895;28;20036;-54
2022/06/24 01:28:01;;;;;;;5.75;4.50;;;;;;;14.60;100.00;99644.03;5098813;28;20439;-52
2022/06/24 01:30:45;;;;;;;6.13;4.65;;;;;;;14.63;100.00;99633.34;5096116;28;20052;-52
2022/06/24 01:33:30;;;;;;;8.88;5.28;;;;;;;14.56;100.00;99637.16;5102419;28;20051;-53
2022/06/24 01:36:14;;;;;;;6.50;4.85;;;;;;;14.38;100.00;99633.53;5100569;28;20048;-52
2022/06/24 01:38:59;;;;;;;6.95;5.20;;;;;;;14.46;100.00;99624.38;5095262;28;21608;-53
2022/06/24 01:41:43;;;;;;;5.32;4.40;;;;;;;14.39;100.00;99622.91;5103183;28;20044;-51
2022/06/24 01:44:27;;;;;;;6.18;4.57;;;;;;;14.39;100.00;99625.53;5095964;28;20043;-52
2022/06/24 01:47:12;;;;;;;5.63;4.47;;;;;;;14.27;100.00;99626.94;5094569;28;20036;-56
2022/06/24 01:49:56;;;;;;;7.68;5.13;;;;;;;14.31;100.00;99626.81;5099415;28;20043;-52
2022/06/24 01:52:40;;;;;;;6.57;5.07;;;;;;;14.31;100.00;99613.63;5096261;28;20043;-54
2022/06/24 01:55:25;;;;;;;7.40;4.85;;;;;;;14.34;100.00;99617.00;5096698;28;20401;-55
2022/06/24 01:58:10;;;;;;;6.75;5.40;;;;;;;14.16;100.00;99621.25;5097133;28;20047;-53
2022/06/24 02:00:55;;;;;;;10.95;4.80;;;;;;;14.22;100.00;99612.25;5098918;28;20044;-52
2022/06/24 02:03:40;;;;;;;6.32;5.03;;;;;;;14.31;100.00;99614.50;5094762;28;20762;-55
2022/06/24 02:06:24;;;;;;;6.05;4.30;;;;;;;14.24;100.00;99613.91;5098472;28;20138;-53
2022/06/24 02:09:09;;;;;;;5.65;4.38;;;;;;;14.21;100.00;99610.53;5097825;28;20051;-53
2022/06/24 02:14:57;;;;;;;5.78;4.85;;;;;;;14.09;100.00;99609.28;5094915;28;20044;-52
2022/06/24 02:17:42;;;;;;;6.15;4.85;;;;;;;14.03;100.00;99606.91;5097559;28;20040;-54
2022/06/24 02:20:26;;;;;;;10.73;4.97;;;;;;;13.92;100.00;99604.72;5097734;28;20052;-53
2022/06/24 02:23:11;;;;;;;6.50;4.55;;;;;;;13.92;100.00;99596.84;5096812;28;20459;-54
2022/06/24 02:25:56;;;;;;;7.78;5.03;;;;;;;13.76;100.00;99601.88;5094223;28;20447;-51
2022/06/24 02:28:41;;;;;;;7.80;4.72;;;;;;;13.72;100.00;99608.19;5096356;28;20051;-54
2022/06/24 02:31:25;;;;;;;8.80;4.75;;;;;;;13.65;100.00;99595.34;5095089;28;20059;-52
2022/06/24 02:34:10;;;;;;;6.97;5.18;;;;;;;13.63;100.00;99603.31;5093433;28;20040;-53
2022/06/24 02:36:55;;;;;;;6.05;5.32;;;;;;;13.61;100.00;99605.13;5051799;28;1181648;-53
2022/06/24 02:39:39;;;;;;;6.43;4.93;;;;;;;13.65;100.00;99604.09;5097083;28;20135;-54
2022/06/24 02:42:24;;;;;;;9.52;5.10;;;;;;;13.64;100.00;99598.88;5097648;28;20052;-54
2022/06/24 02:45:08;;;;;;;7.68;5.15;;;;;;;13.67;100.00;99610.16;5095758;28;20048;-54
2022/06/24 02:47:53;;;;;;;8.52;5.35;;;;;;;13.63;100.00;99605.94;5096957;28;20970;-53
2022/06/24 02:50:42;;;;;;;7.00;4.80;;;;;;;13.72;100.00;99608.19;5096376;28;20058;-54
2022/06/24 02:53:28;;;;;;;6.72;4.97;;;;;;;13.75;100.00;99607.22;5096062;28;20066;-54
2022/06/24 02:56:14;;;;;;;9.15;5.10;;;;;;;13.74;100.00;99613.38;5098311;28;20048;-53
2022/06/24 02:58:58;;;;;;;8.90;4.70;;;;;;;13.82;100.00;99621.84;5096144;28;20645;-54
2022/06/24 03:01:43;;;;;;;8.40;5.32;;;;;;;13.81;100.00;99620.09;5094704;28;20044;-53
2022/06/24 03:04:28;;;;;;;5.68;4.68;;;;;;;13.73;100.00;99622.22;5094632;28;20446;-55
2022/06/24 03:07:12;;;;;;;7.30;4.18;;;;;;;13.75;100.00;99623.00;5097675;28;20037;-54
2022/06/24 03:09:56;;;;;;;8.55;5.18;;;;;;;13.79;100.00;99622.81;5099694;28;20050;-53
2022/06/24 03:12:42;;;;;;;9.75;5.03;;;;;;;13.84;100.00;99611.22;5095021;28;20051;-54
2022/06/24 03:15:26;;;;;;;10.35;5.20;;;;;;;13.86;100.00;99615.50;5098362;28;20048;-51
2022/06/24 03:18:11;;;;;;;8.90;4.82;;;;;;;13.76;100.00;99620.31;5095259;28;20088;-52
2022/06/24 03:20:56;;;;;;;10.75;5.30;;;;;;;13.79;100.00;99620.19;5096284;28;20466;-56
2022/06/24 03:23:40;;;;;;;10.05;5.72;;;;;;;13.76;100.00;99620.31;5094771;28;20071;-54
2022/06/24 03:26:25;;;;;;;7.15;4.97;;;;;;;13.87;100.00;99619.84;5099166;28;20039;-52
2022/06/24 03:29:09;;;;;;;12.85;5.10;;;;;;;13.89;100.00;99610.13;5096111;28;20044;-51
2022/06/24 03:31:53;;;;;;;9.45;5.10;;;;;;;13.94;100.00;99621.34;5096940;28;20429;-54
2022/06/24 03:34:39;;;;;;;8.05;5.95;;;;;;;14.01;100.00;99622.78;5099171;28;21404;-52
2022/06/24 03:37:23;;;;;;;8.98;5.82;;;;;;;14.00;100.00;99625.47;5097600;28;20135;-52
2022/06/24 03:40:08;;;;;;;8.82;5.85;;;;;;;14.10;100.00;99624.16;5093021;28;20055;-53
2022/06/24 03:42:53;;;;;;;7.47;5.80;;;;;;;14.21;100.00;99624.56;5097405;28;20125;-52
2022/06/24 03:45:38;;;;;;;6.72;5.13;;;;;;;14.20;100.00;99617.59;5099395;28;20044;-51
2022/06/24 03:48:22;;;;;;;6.10;5.50;;;;;;;14.27;100.00;99620.81;5094094;28;20052;-52
2022/06/24 03:51:06;;;;;;;9.27;6.20;;;;;;;14.37;100.00;99627.41;5097615;28;20044;-52
2022/06/24 03:53:50;;;;;;;11.07;6.50;;;;;;;14.44;100.00;99620.94;5097301;28;20056;-53
2022/06/24 03:56:35;;;;;;;7.40;6.30;;;;;;;14.55;100.00;99624.91;5099015;28;20378;-53
2022/06/24 03:59:19;;;;;;;7.70;6.03;;;;;;;14.66;100.00;99622.66;5098050;28;20123;-55
2022/06/24 04:02:04;;;;;;;7.93;5.60;;;;;;;14.80;100.00;99632.59;5094782;28;20052;-52
2022/06/24 04:04:49;;;;;;;8.10;6.18;;;;;;;14.90;100.00;99631.25;5099012;28;20062;-54
2022/06/24 04:07:34;;;;;;;8.70;6.30;;;;;;;15.12;100.00;99625.84;5095645;28;20044;-52
2022/06/24 04:10:18;;;;;;;6.65;5.22;;;;;;;15.40;100.00;99633.28;5093929;28;20131;-52
2022/06/24 04:13:02;;;;;;;7.30;5.07;;;;;;;15.71;100.00;99629.22;5096370;28;20048;-51
2022/06/24 04:15:49;;;;;;;6.88;4.82;;;;;;;16.34;100.00;99629.53;5093013;28;20396;-54
2022/06/24 04:18:34;;;;;;;7.63;5.53;;;;;;;16.72;100.00;99630.19;5094548;28;20058;-50
2022/06/24 04:21:18;;;;;;;11.57;6.75;;;;;;;17.15;100.00;99625.25;5097334;28;20063;-52
2022/06/24 04:24:03;;;;;;;8.82;5.82;;;;;;;17.30;100.00;99623.56;5098327;28;20036;-55
2022/06/24 04:26:48;;;;;;;11.05;5.68;;;;;;;17.59;100.00;99623.72;5106151;28;20369;-53
2022/06/24 04:29:32;;;;;;;6.28;4.78;;;;;;;17.60;100.00;99622.78;5096727;28;20047;-54
2022/06/24 04:32:17;;;;;;;6.82;4.97;;;;;;;17.87;100.00;99609.75;5093982;28;20040;-53
2022/06/24 04:35:03;;;;;;;6.80;4.90;;;;;;;18.01;100.00;99614.28;5096669;28;20047;-52
2022/06/24 04:37:47;;;;;;;5.47;4.68;;;;;;;18.18;100.00;99614.13;5097341;28;20501;-52
2022/06/24 04:40:32;;;;;;;6.10;4.78;;;;;;;18.04;100.00;99617.59;5092949;28;20047;-53
2022/06/24 04:43:16;;;;;;;7.63;4.63;;;;;;;18.60;100.00;99615.13;5096777;28;20105;-55
2022/06/24 04:46:01;;;;;;;7.43;4.32;;;;;;;18.95;100.00;99613.00;5093523;28;20048;-55
2022/06/24 04:48:45;;;;;;;5.95;4.28;;;;;;;19.09;100.00;99612.97;5093569;28;20043;-53
2022/06/24 04:51:30;;;;;;;6.18;4.53;;;;;;;19.27;100.00;99620.69;5095027;28;20052;-52
2022/06/24 04:54:14;;;;;;;5.80;3.70;;;;;;;19.51;100.00;99615.63;5094135;28;20236;-52
2022/06/24 04:56:58;;;;;;;4.90;3.47;;;;;;;19.75;100.00;99619.34;5093254;28;20081;-56
2022/06/24 04:59:43;;;;;;;7.32;3.97;;;;;;;20.06;100.00;99612.84;5092854;28;20406;-56
2022/06/24 05:02:27;;;;;;;8.65;3.70;;;;;;;20.25;100.00;99624.91;5092052;28;20040;-53
2022/06/24 05:05:12;;;;;;;7.82;3.85;;;;;;;20.17;100.00;99619.25;5080823;28;20056;-55
2022/06/24 05:07:57;;;;;;;8.13;4.10;;;;;;;20.74;100.00;99610.91;5092320;28;20048;-56
2022/06/24 05:10:41;;;;;;;5.85;3.22;;;;;;;20.26;100.00;99627.47;5092517;28;20097;-55
2022/06/24 05:13:26;;;;;;;6.32;3.33;;;;;;;20.52;100.00;99615.06;5094840;28;20051;-54
2022/06/24 05:16:10;;;;;;;3.90;3.28;;;;;;;21.07;100.00;99623.63;5090623;28;20048;-55
2022/06/24 05:18:55;;;;;;;6.03;3.10;;;;;;;21.15;100.00;99623.94;5091037;28;20048;-55
2022/06/24 05:21:39;;;;;;;5.50;3.10;;;;;;;21.17;100.00;99608.69;5090064;28;20071;-52
2022/06/24 05:24:24;;;;;;;4.85;2.78;;;;;;;21.54;100.00;99619.38;5096560;28;20100;-53
2022/06/24 05:27:08;;;;;;;4.43;2.80;;;;;;;21.91;100.00;99614.00;5098508;28;20048;-53
2022/06/24 05:29:53;;;;;;;5.85;3.47;;;;;;;21.90;100.00;99612.28;5090398;28;20043;-53
2022/06/24 05:32:38;;;;;;;4.82;3.05;;;;;;;22.10;100.00;99606.31;5095297;28;20040;-55
2022/06/24 05:35:22;;;;;;;7.10;3.35;;;;;;;22.21;100.00;99612.66;5091548;28;20073;-55
2022/06/24 05:38:07;;;;;;;4.45;2.70;;;;;;;22.27;100.00;99606.88;5091955;28;20048;-54
2022/06/24 05:40:52;;;;;;;6.35;3.17;;;;;;;22.73;100.00;99609.47;5091799;28;20044;-54
2022/06/24 05:43:36;;;;;;;3.92;3.03;;;;;;;22.61;100.00;99605.09;5089743;28;20044;-56
2022/06/24 05:46:21;;;;;;;8.13;2.53;;;;;;;22.61;99.68;99602.41;5090930;28;20035;-55
2022/06/24 05:49:05;;;;;;;3.08;2.40;;;;;;;22.74;98.46;99600.47;5093872;28;20042;-54
2022/06/24 05:51:50;;;;;;;4.30;2.78;;;;;;;22.93;98.09;99604.38;5097052;28;20043;-55
2022/06/24 05:57:37;;;;;;;3.58;2.40;;;;;;;23.60;93.92;99603.44;5101995;28;20517;-54
2022/06/24 06:00:22;;;;;;;3.00;2.03;;;;;;;23.90;91.99;99594.72;5101781;28;20047;-55
2022/06/24 06:03:07;;;;;;;5.85;1.73;;;;;;;23.72;90.95;99605.13;5102177;28;20062;-54
2022/06/24 06:05:52;;;;;;;4.68;2.00;;;;;;;23.65;89.26;99603.91;5095227;28;20048;-55
2022/06/24 06:08:38;;;;;;;3.70;1.85;;;;;;;23.46;88.75;99591.19;5094359;28;20047;-55
2022/06/24 06:11:24;;;;;;;3.17;1.80;;;;;;;24.00;86.60;99596.50;5093466;28;20044;-55
2022/06/24 06:14:09;;;;;;;9.10;2.47;;;;;;;23.87;89.02;99606.53;5097825;28;20040;-57
2022/06/24 06:16:53;;;;;;;5.63;2.00;;;;;;;24.20;87.00;99599.31;5093432;28;20063;-56
2022/06/24 06:19:38;;;;;;;4.65;1.83;;;;;;;24.05;86.90;99600.59;5095865;28;20043;-57
2022/06/24 06:22:23;;;;;;;8.13;2.33;;;;;;;23.93;87.02;99607.84;5095343;28;20043;-55
2022/06/24 06:25:08;;;;;;;5.05;2.20;;;;;;;24.21;86.30;99614.38;5081230;28;20044;-55
2022/06/24 06:27:53;;;;;;;17.90;5.82;;;;;;;24.36;85.76;99607.72;5095552;28;20039;-57
2022/06/24 06:30:37;;;;;;;15.55;6.90;;;;;;;24.53;81.32;99600.94;5096450;28;20044;-56
2022/06/24 06:33:22;;;;;;;9.73;2.55;;;;;;;24.57;81.91;99601.53;5094390;28;20051;-55
2022/06/24 06:36:09;;;;;;;6.47;2.80;;;;;;;24.86;81.07;99594.50;5095189;28;20044;-56
2022/06/24 06:38:54;;;;;;;4.25;2.35;;;;;;;24.92;80.79;99599.28;5099829;28;20047;-55
2022/06/24 06:41:40;;;;;;;3.10;1.48;;;;;;;25.37;77.46;99603.41;5097564;28;20048;-56
2022/06/24 06:44:24;;;;;;;2.53;1.63;;;;;;;25.30;80.51;99602.28;5099363;28;20051;-55
2022/06/24 06:47:09;;;;;;;3.08;1.75;;;;;;;25.84;78.45;99592.94;5095369;28;20051;-55
2022/06/24 06:49:53;;;;;;;4.55;1.35;;;;;;;25.86;78.09;99602.50;5097146;28;20097;-56
2022/06/24 06:52:39;;;;;;;7.20;1.67;;;;;;;25.74;75.70;99609.00;5098615;28;20093;-54
2022/06/24 06:55:24;;;;;;;3.03;1.33;;;;;;;25.72;75.57;99594.88;5097895;28;20059;-56
2022/06/24 06:58:09;;;;;;;2.70;1.48;;;;;;;25.41;74.32;99595.00;5101750;28;20588;-56
2022/06/24 07:00:53;;;;;;;2.80;1.38;;;;;;;25.71;72.91;99592.34;5097422;28;20105;-55
2022/06/24 07:03:38;;;;;;;3.47;1.08;;;;;;;25.78;70.88;99597.00;5092240;28;20048;-54
2022/06/24 07:06:24;;;;;;;2.47;0.88;;;;;;;25.95;69.53;99583.88;5091783;28;20048;-57
2022/06/24 07:09:08;;;;;;;2.40;1.10;;;;;;;26.07;69.50;99583.59;5095042;28;20047;-56
2022/06/24 07:11:53;;;;;;;2.08;1.30;;;;;;;26.14;68.40;99591.06;5096426;28;20056;-55
2022/06/24 07:14:41;;;;;;;4.68;1.42;;;;;;;26.04;66.04;99583.03;5094855;28;20101;-55
2022/06/24 07:17:25;;;;;;;3.70;1.13;;;;;;;26.30;63.84;99567.19;5098659;28;20130;-55
2022/06/24 07:20:10;;;;;;;5.45;1.05;;;;;;;26.52;62.39;99580.28;5099633;28;20044;-55
2022/06/24 07:22:55;;;;;;;2.80;1.05;;;;;;;26.87;64.56;99578.72;5098497;28;20040;-56
2022/06/24 07:25:40;;;;;;;12.57;1.05;;;;;;;26.41;62.71;99576.88;5099684;28;20039;-55
2022/06/24 07:28:28;;;;;;;1.75;0.90;;;;;;;26.59;60.64;99571.66;5101311;28;20054;-55
2022/06/24 07:31:17;;;;;;;4.20;1.08;;;;;;;26.97;61.68;99573.31;5094607;28;20055;-56
2022/06/24 07:34:04;;;;;;;3.25;1.05;;;;;;;27.36;58.86;99565.06;5095502;28;20466;-55
2022/06/24 07:36:49;;;;;;;4.30;1.25;;;;;;;27.10;56.77;99571.13;5098461;28;20043;-54
2022/06/24 07:39:33;;;;;;;2.08;1.13;;;;;;;27.04;59.20;99555.63;5095874;28;20039;-55
2022/06/24 07:42:18;;;;;;;6.65;0.65;;;;;;;27.48;57.92;99569.22;5091177;28;20466;-55
2022/06/24 07:45:04;;;;;;;9.32;1.42;;;;;;;26.66;57.68;99581.66;5091413;28;20101;-54
2022/06/24 07:47:48;;;;;;;2.47;0.57;;;;;;;27.43;57.00;99558.94;5096088;28;20694;-56
2022/06/24 07:50:33;;;;;;;1.50;0.60;;;;;;;27.44;55.64;99554.41;5095004;28;20032;-57
2022/06/24 07:53:18;;;;;;;1.77;0.93;;;;;;;27.67;54.23;99566.38;5101748;28;20050;-56
2022/06/24 07:59:06;;;;;;;1.42;0.68;;;;;;;28.11;52.00;99550.31;5097100;28;20035;-57
2022/06/24 08:01:52;;;;;;;2.25;0.90;;;;;;;28.12;50.55;99543.91;5095058;28;20052;-57
2022/06/24 08:04:37;;;;;;;0.90;0.77;;;;;;;27.88;49.93;99538.34;5081900;28;20048;-56
2022/06/24 08:07:21;;;;;;;1.27;0.90;;;;;;;27.46;52.99;99545.19;5095336;28;20040;-56
2022/06/24 08:10:06;;;;;;;2.95;0.82;;;;;;;28.00;49.29;99538.94;5095716;28;20501;-55
2022/06/24 08:12:50;;;;;;;2.67;0.70;;;;;;;28.31;51.34;99539.34;5095619;28;20048;-57
2022/06/24 08:15:35;;;;;;;1.60;0.90;;;;;;;28.47;51.11;99534.09;5096858;28;20044;-56
2022/06/24 08:18:20;;;;;;;2.10;0.88;;;;;;;28.40;48.42;99528.50;5097407;28;20039;-56
2022/06/24 08:21:05;;;;;;;2.40;0.60;;;;;;;28.48;48.49;99533.06;5096259;28;20040;-56
2022/06/24 08:23:50;;;;;;;1.60;0.70;;;;;;;28.00;45.26;99520.09;5095658;28;20044;-54
2022/06/24 08:26:34;;;;;;;5.13;0.73;;;;;;;27.85;47.16;99522.50;5097299;28;20040;-55
2022/06/24 08:29:19;;;;;;;4.13;0.77;;;;;;;28.71;48.34;99525.25;5098233;28;20439;-56
2022/06/24 08:32:04;;;;;;;3.67;0.70;;;;;;;28.32;46.15;99525.69;5092987;28;20051;-55
2022/06/24 08:34:48;;;;;;;1.50;0.50;;;;;;;28.55;46.74;99512.56;5095656;28;20055;-55
2022/06/24 08:37:33;;;;;;;1.52;0.50;;;;;;;28.18;48.14;99515.53;5093114;28;20100;-56
2022/06/24 08:40:20;;;;;;;3.55;0.85;;;;;;;28.33;49.06;99515.78;5096164;28;20069;-56
2022/06/24 08:43:05;;;;;;;1.63;0.60;;;;;;;28.44;45.67;99515.56;5094708;28;20128;-55
2022/06/24 08:45:49;;;;;;;3.83;1.10;;;;;;;28.71;46.63;99509.09;5090987;28;20151;-55
2022/06/24 08:48:37;;;;;;;4.97;0.90;;;;;;;28.55;47.42;99512.56;5098984;28;20394;-54
2022/06/24 08:51:22;;;;;;;4.38;0.60;;;;;;;28.69;46.28;99518.34;5097948;28;20032;-55
2022/06/24 08:54:09;;;;;;;2.38;0.88;;;;;;;28.18;44.65;99502.91;5098233;28;20101;-56
2022/06/24 08:56:53;;;;;;;0.98;0.80;;;;;;;28.39;44.44;99502.53;5077903;28;20048;-55
2022/06/24 08:59:39;;;;;;;4.25;0.70;;;;;;;29.09;44.74;99494.28;5094129;28;20471;-55
2022/06/24 09:02:23;;;;;;;4.47;0.70;;;;;;;28.86;43.15;99504.78;5095669;28;20391;-54
2022/06/24 09:05:09;;;;;;;2.72;0.95;;;;;;;28.87;46.45;99498.38;5098241;28;20049;-55
2022/06/24 09:08:02;;;;;;;3.20;1.00;;;;;;;29.01;44.70;99499.63;5100029;28;20048;-54
2022/06/24 09:11:06;;;;;;;1.95;0.68;;;;;;;29.48;45.53;99498.22;5101378;28;20054;-55
2022/06/24 09:13:55;;;;;;;3.05;0.70;;;;;;;29.50;42.51;99493.47;5098171;28;20079;-54
2022/06/24 09:16:40;;;;;;;3.50;0.70;;;;;;;29.20;45.10;99500.34;5098727;28;20044;-55
2022/06/24 09:19:25;;;;;;;2.42;1.20;;;;;;;29.17;43.25;99489.91;5098179;28;20052;-54
2022/06/24 09:22:10;;;;;;;9.25;2.70;;;;;;;29.34;43.36;99497.84;5094629;28;20061;-56
2022/06/24 09:24:54;;;;;;;1.92;1.25;;;;;;;28.92;42.76;99489.78;5099004;28;20048;-55
2022/06/24 09:27:45;;;;;;;1.25;0.70;;;;;;;29.78;45.36;99484.06;5097439;28;20043;-55
2022/06/24 09:30:35;;;;;;;1.35;0.63;;;;;;;28.94;43.27;99479.72;5097439;28;20048;-54
2022/06/24 09:33:20;;;;;;;8.05;0.50;;;;;;;29.35;42.65;99480.66;5098593;28;20059;-57
2022/06/24 09:36:10;;;;;;;0.80;0.80;;;;;;;29.33;43.13;99484.53;5098784;28;20879;-55
2022/06/24 09:39:00;;;;;;;2.05;0.60;;;;;;;29.64;42.85;99486.59;5099833;28;20402;-55
2022/06/24 09:41:50;;;;;;;2.15;0.38;;;;;;;30.14;41.98;99480.97;5100728;28;20055;-55
2022/06/24 09:44:45;;;;;;;10.75;1.50;;;;;;;29.86;41.47;99476.97;5102946;28;20052;-55
2022/06/24 09:47:30;;;;;;;5.25;0.98;;;;;;;30.74;41.51;99475.06;5084414;28;20040;-56
2022/06/24 09:50:14;;;;;;;2.38;0.88;;;;;;;29.72;43.98;99478.50;5101724;28;20073;-55
2022/06/24 09:53:01;;;;;;;5.40;0.85;;;;;;;29.26;41.56;99481.66;5099601;28;20052;-54
2022/06/24 09:55:46;;;;;;;1.10;0.65;;;;;;;29.85;42.95;99476.13;5099085;28;20051;-54
2022/06/24 09:58:31;;;;;;;1.88;0.70;;;;;;;29.85;41.99;99465.34;5095849;28;20079;-57
2022/06/24 10:01:20;;;;;;;2.85;0.50;;;;;;;29.37;41.70;99474.25;5096947;28;20051;-54
2022/06/24 10:04:08;;;;;;;1.98;0.52;;;;;;;30.40;43.40;99461.88;5095782;28;20044;-55
2022/06/24 10:06:55;;;;;;;1.48;0.50;;;;;;;30.66;43.02;99467.00;5093562;28;20047;-55
2022/06/24 10:09:40;;;;;;;0.85;0.57;;;;;;;30.44;41.01;99467.75;5099249;28;20069;-55
2022/06/24 10:12:26;;;;;;;1.48;0.60;;;;;;;30.20;42.83;99457.88;5099146;28;20052;-54
2022/06/24 10:15:12;;;;;;;3.30;0.70;;;;;;;29.65;41.13;99453.22;5092710;28;20138;-56
2022/06/24 10:18:00;;;;;;;3.05;0.88;;;;;;;30.11;43.02;99456.19;5093016;28;20101;-56
2022/06/24 10:20:46;;;;;;;4.45;0.73;;;;;;;30.35;40.95;99455.28;5097130;28;20057;-55
2022/06/24 10:23:47;;;;;;;3.03;0.60;;;;;;;30.86;39.74;99436.84;5098349;28;20055;-54
2022/06/24 10:26:35;;;;;;;1.27;0.50;;;;;;;30.28;40.79;99447.03;5092164;28;20532;-55
2022/06/24 10:29:22;;;;;;;1.80;0.60;;;;;;;30.24;40.36;99441.16;5089884;28;20044;-54
2022/06/24 10:32:07;;;;;;;3.38;0.82;;;;;;;30.85;42.26;99429.78;5092230;28;20040;-56
2022/06/24 10:34:57;;;;;;;4.80;0.55;;;;;;;30.51;44.10;99444.41;5091026;28;20066;-56
2022/06/24 10:37:51;;;;;;;1.67;0.60;;;;;;;30.09;41.35;99433.91;5092112;28;20043;-55
2022/06/24 10:40:38;;;;;;;3.08;0.70;;;;;;;30.71;40.19;99423.22;5093672;28;20486;-55
2022/06/24 10:43:42;;;;;;;2.50;0.80;;;;;;;30.33;41.62;99424.94;5094191;28;20585;-55
2022/06/24 10:46:26;;;;;;;0.98;0.40;;;;;;;29.82;41.65;99430.59;5091018;28;20619;-54
2022/06/24 10:49:10;;;;;;;2.75;0.60;;;;;;;30.44;40.11;99422.66;5096320;28;20044;-56
2022/06/24 10:51:55;;;;;;;1.60;0.70;;;;;;;29.55;41.43;99421.00;5094802;28;20085;-55
2022/06/24 10:54:39;;;;;;;1.27;0.50;;;;;;;30.49;41.69;99425.69;5094511;28;20048;-55
2022/06/24 10:57:25;;;;;;;2.38;0.70;;;;;;;30.70;40.06;99408.03;5094220;28;20775;-55
2022/06/24 11:00:14;;;;;;;4.65;0.80;;;;;;;30.26;40.20;99412.13;5094087;28;20428;-55
2022/06/24 11:03:12;;;;;;;0.82;0.50;;;;;;;30.61;39.27;99404.50;5094205;28;20052;-55
2022/06/24 11:05:57;;;;;;;1.15;0.63;;;;;;;30.75;42.32;99394.84;5096983;28;20092;-55
2022/06/24 11:08:41;;;;;;;0.95;0.50;;;;;;;30.25;38.79;99407.72;5098112;28;20473;-57
2022/06/24 11:11:30;;;;;;;2.47;0.70;;;;;;;30.63;39.17;99396.25;5091735;28;20051;-55
2022/06/24 11:14:26;;;;;;;1.02;0.40;;;;;;;30.57;38.84;99394.25;5089450;28;20048;-56
2022/06/24 11:17:11;;;;;;;9.18;0.80;;;;;;;30.57;38.60;99388.84;5087259;28;20040;-56
2022/06/24 11:19:57;;;;;;;1.50;0.52;;;;;;;30.55;39.46;99386.34;5094570;28;20078;-55
2022/06/24 11:22:43;;;;;;;3.28;0.55;;;;;;;31.39;38.20;99386.47;5090975;28;20102;-56
2022/06/24 11:25:29;;;;;;;4.40;0.77;;;;;;;30.69;38.74;99388.28;5091930;28;20058;-55
2022/06/24 11:28:21;;;;;;;1.05;0.60;;;;;;;30.64;37.90;99379.84;5093073;28;20829;-55
2022/06/24 11:31:27;;;;;;;1.98;0.52;;;;;;;30.44;38.72;99381.31;5091132;28;20538;-55
2022/06/24 11:34:12;;;;;;;2.67;0.50;;;;;;;30.81;38.32;99377.94;5090892;28;20076;-57
2022/06/24 11:36:58;;;;;;;0.90;0.60;;;;;;;30.76;36.96;99369.47;5091616;28;20475;-56
2022/06/24 11:39:43;;;;;;;3.33;0.63;;;;;;;30.33;38.72;99373.63;5092381;28;20047;-56
2022/06/24 11:42:28;;;;;;;7.45;0.80;;;;;;;30.21;37.16;99368.59;5095204;28;20043;-54
2022/06/24 11:45:12;;;;;;;0.82;0.55;;;;;;;30.58;37.66;99364.38;5096544;28;20051;-55
2022/06/24 11:47:58;;;;;;;0.95;0.50;;;;;;;30.79;38.75;99352.94;5091354;28;20061;-55
2022/06/24 11:50:43;;;;;;;3.25;0.45;;;;;;;30.63;40.19;99359.25;5092380;28;20040;-55
2022/06/24 11:53:27;;;;;;;5.60;0.85;;;;;;;30.39;39.80;99354.84;5088936;28;20043;-56
2022/06/24 11:56:12;;;;;;;0.80;0.50;;;;;;;30.76;40.08;99353.28;5091711;28;20142;-55
2022/06/24 11:59:02;;;;;;;5.20;0.77;;;;;;;30.25;38.79;99347.47;5092185;28;20043;-54
2022/06/24 12:01:47;;;;;;;2.75;0.70;;;;;;;30.91;39.70;99350.69;5089178;28;20040;-56
2022/06/24 12:04:32;;;;;;;0.75;0.50;;;;;;;30.65;38.03;99351.81;5091360;28;20048;-55
2022/06/24 12:07:17;;;;;;;3.50;0.55;;;;;;;30.70;38.15;99352.13;5090827;28;20044;-56
2022/06/24 12:10:02;;;;;;;7.00;1.02;;;;;;;30.57;38.44;99343.75;5088315;28;20081;-56
2022/06/24 12:12:59;;;;;;;3.50;0.80;;;;;;;30.85;38.43;99335.19;5087900;28;20682;-57
2022/06/24 12:15:44;;;;;;;1.38;0.60;;;;;;;30.86;39.95;99344.94;5091330;28;20048;-56
2022/06/24 12:18:29;;;;;;;0.70;0.70;;;;;;;30.82;40.67;99341.78;5090330;28;20730;-55
2022/06/24 12:21:13;;;;;;;1.30;0.70;;;;;;;30.20;39.36;99337.22;5092453;28;20047;-55
2022/06/24 12:23:58;;;;;;;1.77;0.60;;;;;;;30.57;38.81;99335.66;5087914;28;20056;-56
2022/06/24 12:26:44;;;;;;;3.25;0.70;;;;;;;30.83;39.29;99329.09;5086787;28;20044;-56
2022/06/24 12:29:35;;;;;;;1.70;0.70;;;;;;;29.95;39.28;99332.91;5106618;28;20130;-55
2022/06/24 12:32:20;;;;;;;1.95;0.80;;;;;;;29.97;38.13;99326.31;5088011;28;20356;-56
2022/06/24 12:35:05;;;;;;;1.20;0.70;;;;;;;30.40;40.10;99317.88;5091525;28;20055;-55
2022/06/24 12:37:53;;;;;;;4.10;0.75;;;;;;;30.41;40.32;99316.84;5097728;28;20213;-56
2022/06/24 12:40:38;;;;;;;3.15;0.70;;;;;;;30.15;39.58;99315.25;5097204;28;20386;-55
2022/06/24 12:43:23;;;;;;;1.58;0.60;;;;;;;30.04;39.23;99319.19;5102336;28;20047;-54
2022/06/24 12:46:07;;;;;;;1.02;0.80;;;;;;;30.25;40.20;99315.06;5097848;28;20040;-55
2022/06/24 12:51:56;;;;;;;5.70;0.90;;;;;;;29.88;38.62;99303.06;5098673;28;20162;-55
2022/06/24 12:54:40;;;;;;;1.83;1.10;;;;;;;30.01;38.16;99299.81;5095750;28;20052;-55
2022/06/24 12:57:24;;;;;;;3.30;0.68;;;;;;;30.32;39.30;99301.69;5095964;28;20051;-55
2022/06/24 13:00:15;;;;;;;3.65;0.80;;;;;;;30.11;40.19;99305.84;5091159;28;20055;-55
2022/06/24 13:02:59;;;;;;;1.85;0.70;;;;;;;29.99;39.63;99293.72;5099434;28;20047;-57
2022/06/24 13:05:44;;;;;;;1.20;0.70;;;;;;;29.47;41.58;99295.06;5098813;28;20698;-54
2022/06/24 13:08:28;;;;;;;1.52;1.13;;;;;;;29.67;40.25;99286.59;5102277;28;20046;-54